AirNav   Air Wisconsin Up To $57,000 Bonus
 
 1256 users online  

87KY Midwest Communication Heliport
Highland Heights, Kentucky, USA

GOING TO HIGHLAND HEIGHTS?


FAA INFORMATION EFFECTIVE 25 MARCH 2021

Location

FAA Identifier: 87KY
Lat/Long: 39-02-20.2400N 084-27-45.3200W
39-02.337333N 084-27.755333W
39.0389556,-84.4625889
(estimated)
Elevation: 850 ft. / 259 m (estimated)
Variation: 03W (1985)
From city: 1 mile W of HIGHLAND HEIGHTS, KY
Time zone: UTC -4 (UTC -5 during Standard Time)
Zip code: 41076

Heliport Operations

Heliport use: Private use. Permission required prior to landing
Activation date: 05/1991
Control tower: no
ARTCC: INDIANAPOLIS CENTER
FSS: LOUISVILLE FLIGHT SERVICE STATION
Attendance: MON-SAT 0600-0000
Segmented circle: no

Heliport Communications

WX ASOS at LUK (4 nm NE): PHONE 513-321-6291
WX ASOS at CVG (10 nm W): 134.375 (859-767-8210)
WX AWOS-3 at I69 (12 nm E): 127.275 (513-732-6978)
WX AWOS-3PT at I67 (20 nm NW): 118.15 (513-569-4964)
WX ASOS at HAO (20 nm N): 121.425 (513-863-6137)

Nearby radio navigation aids

VOR radial/distance  VOR name  Freq  Var
CVGr087/11.3CINCINNATI VORTAC117.3004W
FLMr347/24.4FALMOUTH VOR/DME117.0004W
MXQr237/38.7MIDWEST VOR/DME112.9004W

 
NDB name  Hdg/Dist  Freq  Var  ID
SPORTYS263/11.724504WPWF .--. .-- ..-.
HOOK FIELD185/27.623904WHKF .... -.- ..-.

Heliport Services

Runway Information

Helipad H1

Dimensions: 23 x 23 ft. / 7 x 7 m
Surface: concrete
Latitude: 39-02.670667N
Longitude: 084-27.755333W
Elevation: 850.0 ft.
Traffic pattern: leftleft

Heliport Ownership and Management from official FAA records

Ownership: Privately-owned
Owner: MIDWEST COMMUNICATION
FOUR TESSENEER DRIVE
HIGHLAND HEIGHTS, KY 41076
Phone 513-871-3261
Manager: THOMAS BLAND
455 WILMER AVE
CINCINNATI, OH 45226
Phone 513-871-3261

Additional Remarks

FOR CD CTC CINCINNATI APCH AT 859-372-6440

Instrument Procedures

There are no published instrument procedures at 87KY.

Some nearby airports with instrument procedures:

KLUK - Cincinnati Municipal Airport/Lunken Field (4 nm NE)
KCVG - Cincinnati/Northern Kentucky International Airport (10 nm W)
I69 - Clermont County Airport (12 nm E)
I67 - Cincinnati West Airport (20 nm NW)
KHAO - Butler County Regional Airport/Hogan Field (20 nm N)
 
Loc | Ops | Rwys | IFR | FBO | Links
Com | Nav | Svcs | Stats | Notes
Area around 87KY (Midwest Communication Heliport)
 
Road maps at: MapQuest Bing Google
 
Aerial photo
No photo
 
Sectional chart

 
Airport distance calculator
Flying to Midwest Communication Heliport? Find the distance to fly.

From to 87KY

Sunrise and sunset
Times for 17-Apr-2021
 Local
(UTC-4)
 Zulu
(UTC)
Morning civil twilight06:3210:32
Sunrise06:5910:59
Sunset20:1600:16
Evening civil twilight20:4300:43

Current date and time
Zulu (UTC)  17-Apr-2021 15:55:01
Local (UTC-4)  17-Apr-2021 11:55:01
 
METAR
KLUK 
4nm NE 
171453Z 00000KT 10SM OVC080 11/06 A2992 RMK AO2 SLP132 T01060056 51003
KCVG 
10nm W 
171452Z 32004KT 10SM -RA BKN055 OVC065 11/05 A2990 RMK AO2 RAB45 SLP125 P0000 60000 T01110050 53005
KI69 
12nm E 
171535Z AUTO 00000KT 10SM BKN060 OVC070 12/05 A2991 RMK AO2 T01150054
KI67 
20nm NW 
171535Z AUTO 27003KT 10SM BKN055 OVC065 11/05 A2992 RMK AO1
KHAO 
20nm N 
171453Z AUTO VRB03KT 10SM FEW050 SCT075 11/05 A2992 RMK AO2 RAB16E35 SLP133 P0000 60000 T01060050 51002
TAF
KLUK 
4nm NE 
171125Z 1712/1812 00000KT P6SM SCT060 OVC150 FM171400 29003KT P6SM BKN050 OVC100 FM171700 31005KT P6SM VCSH OVC050 FM172000 30006KT P6SM OVC070 FM180300 00000KT P6SM SCT060
KCVG 
10nm W 
171125Z 1712/1818 VRB02KT P6SM SCT060 OVC150 FM171400 30004KT P6SM BKN050 OVC120 FM171700 30007KT P6SM VCSH OVC045 FM172000 30008KT P6SM OVC070 FM180100 29003KT P6SM SCT060 FM180150 31005KT P6SM SCT150
NOTAMs
Click for the latest NOTAMs
NOTAMs are issued by the DoD/FAA and will open in a separate window not controlled by AirNav.

 

 
 

Would you like to see your business listed on this page?

 If your business provides an interesting product or service to pilots, flight crews, aircraft, or users of the Midwest Communication Heliport, you should consider listing it here.  To start the listing process, click on the button below
 
Add a business
 

Other Pages about Midwest Communication Heliport

Update a link
 
Copyright © AirNav, LLC. All rights reserved. Privacy Policy  Contact